Time;durP1;ratioP1;P1;durP2;ratioP2;P2;SDS_P1;SDS_P2;PMS_P1;PMS_P2;Temp;Humidity;BMP_temperature;BMP_pressure;BME280_temperature;BME280_humidity;BME280_pressure;Samples;Min_cycle;Max_cycle;Signal;HPM_P1;HPM_P2
2023/03/06 00:00:47;;;;;;;9.85;6.90;;;;;;;19.80;40.26;100301.28;5030320;28;20065;-48
2023/03/06 00:03:15;;;;;;;9.30;7.28;;;;;;;19.79;40.45;100289.69;5031327;28;20617;-46
2023/03/06 00:05:43;;;;;;;10.30;7.15;;;;;;;19.78;40.54;100285.31;5031558;28;20057;-48
2023/03/06 00:08:10;;;;;;;8.95;7.25;;;;;;;19.78;40.68;100281.78;5033267;28;20042;-49
2023/03/06 00:10:39;;;;;;;8.10;5.97;;;;;;;19.78;40.61;100293.38;5033689;28;20054;-49
2023/03/06 00:13:11;;;;;;;10.77;6.55;;;;;;;19.78;40.74;100287.16;5033516;28;20046;-48
2023/03/06 00:15:39;;;;;;;8.82;6.63;;;;;;;19.77;40.64;100291.69;5033663;28;20045;-47
2023/03/06 00:18:06;;;;;;;9.20;6.88;;;;;;;19.78;40.68;100297.91;5033406;28;20045;-48
2023/03/06 00:20:34;;;;;;;9.48;7.03;;;;;;;19.76;40.86;100285.44;5033392;28;20072;-47
2023/03/06 00:23:02;;;;;;;11.60;6.53;;;;;;;19.76;40.71;100288.13;5033147;28;20057;-48
2023/03/06 00:25:29;;;;;;;8.15;6.55;;;;;;;19.76;40.68;100290.81;5033501;28;20045;-47
2023/03/06 00:27:56;;;;;;;8.75;6.57;;;;;;;19.76;40.62;100293.50;5033469;28;20041;-49
2023/03/06 00:30:24;;;;;;;11.40;6.78;;;;;;;19.75;40.58;100291.81;5031875;28;20054;-49
2023/03/06 00:32:52;;;;;;;9.52;6.80;;;;;;;19.76;40.65;100287.28;5033255;28;20069;-46
2023/03/06 00:35:19;;;;;;;9.80;6.25;;;;;;;19.75;40.68;100281.06;5032167;28;20053;-48
2023/03/06 00:37:47;;;;;;;8.48;5.90;;;;;;;19.75;40.61;100291.81;5033186;28;20041;-47
2023/03/06 00:40:17;;;;;;;8.73;6.35;;;;;;;19.75;40.63;100283.75;5033140;28;20049;-47
2023/03/06 00:42:45;;;;;;;11.50;6.75;;;;;;;19.75;40.67;100281.06;5031874;28;20515;-47
2023/03/06 00:45:13;;;;;;;8.75;6.38;;;;;;;19.75;40.61;100282.91;5032076;28;20057;-47
2023/03/06 00:47:40;;;;;;;8.00;6.22;;;;;;;19.73;40.39;100283.06;5031707;28;20045;-50
2023/03/06 00:50:09;;;;;;;8.68;6.43;;;;;;;19.74;40.25;100284.75;5033347;28;20503;-48
2023/03/06 00:52:36;;;;;;;9.00;6.55;;;;;;;19.74;40.52;100265.97;5031238;28;20065;-49
2023/03/06 00:55:05;;;;;;;10.18;6.43;;;;;;;19.73;40.60;100266.97;5033194;28;20056;-47
2023/03/06 00:57:32;;;;;;;10.50;6.47;;;;;;;19.73;40.50;100266.97;5033078;28;20056;-50
2023/03/06 01:00:01;;;;;;;7.35;5.95;;;;;;;19.74;40.54;100262.44;5033052;28;20049;-47
2023/03/06 01:02:28;;;;;;;7.90;6.22;;;;;;;19.74;40.39;100273.19;5032914;28;20074;-46
2023/03/06 01:04:56;;;;;;;9.05;6.22;;;;;;;19.73;40.46;100271.50;5032991;28;20045;-45
2023/03/06 01:07:26;;;;;;;7.18;5.95;;;;;;;19.73;40.51;100269.66;5031801;28;20049;-44
2023/03/06 01:09:53;;;;;;;10.73;6.47;;;;;;;19.72;40.50;100262.56;5032955;28;20045;-44
2023/03/06 01:12:21;;;;;;;8.20;6.63;;;;;;;19.73;40.31;100258.91;5034066;28;20045;-45
2023/03/06 01:14:50;;;;;;;9.13;5.65;;;;;;;19.71;40.56;100257.34;5036414;28;20407;-46
2023/03/06 01:17:17;;;;;;;9.50;6.95;;;;;;;19.71;40.46;100260.03;5036541;28;20045;-50
2023/03/06 01:19:45;;;;;;;8.80;6.78;;;;;;;19.72;40.61;100253.66;5035536;28;20053;-48
2023/03/06 01:22:13;;;;;;;7.85;6.18;;;;;;;19.72;40.55;100246.44;5036249;28;20053;-49
2023/03/06 01:24:40;;;;;;;7.70;6.40;;;;;;;19.72;40.35;100248.28;5036128;28;20052;-46
2023/03/06 01:27:07;;;;;;;7.72;6.05;;;;;;;19.72;40.42;100250.97;5035850;28;20046;-48
2023/03/06 01:29:35;;;;;;;7.68;6.20;;;;;;;19.70;40.23;100240.41;5035152;28;20060;-52
2023/03/06 01:32:02;;;;;;;6.88;5.22;;;;;;;19.71;40.40;100244.75;5036016;28;20050;-48
2023/03/06 01:34:30;;;;;;;10.35;6.35;;;;;;;19.71;40.34;100249.28;5036530;28;20503;-50
2023/03/06 01:36:57;;;;;;;8.45;6.40;;;;;;;19.71;40.33;100235.88;5034927;28;20076;-48
2023/03/06 01:39:24;;;;;;;7.70;5.70;;;;;;;19.70;40.32;100239.56;5036300;28;20472;-49
2023/03/06 01:41:52;;;;;;;6.15;5.43;;;;;;;19.71;40.31;100233.19;5035937;28;20045;-50
2023/03/06 01:44:19;;;;;;;9.10;6.68;;;;;;;19.69;40.38;100233.34;5035978;28;20056;-47
2023/03/06 01:46:46;;;;;;;10.18;6.55;;;;;;;19.69;40.41;100236.03;5035969;28;20064;-50
2023/03/06 01:49:26;;;;;;;9.45;6.15;;;;;;;19.69;40.22;100229.81;5035588;28;20045;-48
2023/03/06 01:51:56;;;;;;;10.57;6.18;;;;;;;19.70;40.30;100236.88;5035674;28;20076;-47
2023/03/06 01:54:32;;;;;;;10.77;5.50;;;;;;;19.69;40.44;100227.97;5035367;28;20049;-47
2023/03/06 01:57:04;;;;;;;7.40;5.90;;;;;;;19.68;40.30;100228.94;5035425;28;20050;-47
2023/03/06 01:59:36;;;;;;;7.37;6.50;;;;;;;19.69;40.11;100235.19;5034408;28;20049;-47
2023/03/06 02:02:07;;;;;;;8.35;6.30;;;;;;;19.68;40.25;100228.94;5034741;28;20064;-47
2023/03/06 02:04:37;;;;;;;6.63;5.70;;;;;;;19.67;40.21;100224.56;5035699;28;20065;-46
2023/03/06 02:07:06;;;;;;;7.18;5.28;;;;;;;19.67;40.26;100226.41;5035450;28;20052;-48
2023/03/06 02:09:35;;;;;;;7.47;5.60;;;;;;;19.67;40.34;100227.25;5035321;28;20045;-47
2023/03/06 02:12:09;;;;;;;6.35;5.03;;;;;;;19.68;40.26;100228.09;5034245;28;20057;-49
2023/03/06 02:14:38;;;;;;;7.32;6.10;;;;;;;19.67;40.20;100219.19;5034118;28;20054;-47
2023/03/06 02:17:07;;;;;;;7.85;5.85;;;;;;;19.68;40.25;100214.66;5034252;28;20057;-47
2023/03/06 02:19:56;;;;;;;7.25;5.60;;;;;;;19.68;40.30;100217.34;5034171;28;20046;-47
2023/03/06 02:22:31;;;;;;;7.18;5.35;;;;;;;19.67;40.31;100203.09;5033543;28;20062;-49
2023/03/06 02:25:14;;;;;;;6.70;5.43;;;;;;;19.67;40.16;100207.63;5034628;28;20057;-49
2023/03/06 02:27:41;;;;;;;6.90;5.55;;;;;;;19.67;40.27;100210.31;5033991;28;20057;-47
2023/03/06 02:30:14;;;;;;;7.03;5.15;;;;;;;19.67;40.16;100210.31;5033598;28;20049;-49
2023/03/06 02:32:41;;;;;;;7.05;5.88;;;;;;;19.66;40.22;100212.16;5035044;28;20064;-48
2023/03/06 02:35:18;;;;;;;8.52;5.55;;;;;;;19.66;40.28;100201.41;5033879;28;20060;-47
2023/03/06 02:37:45;;;;;;;7.55;5.45;;;;;;;19.66;40.28;100200.56;5033218;28;20060;-51
2023/03/06 02:40:17;;;;;;;8.60;6.50;;;;;;;19.67;40.32;100202.25;5034220;28;20056;-48
2023/03/06 02:42:47;;;;;;;7.00;5.45;;;;;;;19.67;40.12;100204.94;5034764;28;20052;-51
2023/03/06 02:45:23;;;;;;;7.55;4.95;;;;;;;19.66;40.31;100198.72;5033508;28;20068;-48
2023/03/06 02:47:50;;;;;;;6.55;4.95;;;;;;;19.66;40.13;100197.88;5032914;28;20045;-51
2023/03/06 02:50:17;;;;;;;7.18;5.30;;;;;;;19.66;40.22;100200.56;5033504;28;20069;-48
2023/03/06 02:52:45;;;;;;;7.50;5.40;;;;;;;19.65;40.26;100197.03;5034418;28;20045;-46
2023/03/06 02:55:12;;;;;;;7.72;5.65;;;;;;;19.66;40.25;100198.72;5033517;28;20388;-46
2023/03/06 02:57:39;;;;;;;8.32;6.22;;;;;;;19.66;40.03;100201.41;5034479;28;20371;-48
2023/03/06 03:00:09;;;;;;;6.30;5.50;;;;;;;19.65;40.27;100190.81;5033277;28;20057;-48
2023/03/06 03:02:36;;;;;;;9.02;5.75;;;;;;;19.64;40.30;100206.06;5034360;28;20053;-49
2023/03/06 03:05:04;;;;;;;7.40;5.28;;;;;;;19.64;40.15;100195.31;5034352;28;20045;-49
2023/03/06 03:07:31;;;;;;;7.75;5.25;;;;;;;19.64;40.17;100186.44;5033268;28;20048;-47
2023/03/06 03:09:59;;;;;;;5.70;4.72;;;;;;;19.64;40.24;100189.13;5033177;28;20061;-47
2023/03/06 03:12:27;;;;;;;7.43;6.00;;;;;;;19.64;40.23;100194.47;5032826;28;20060;-49
2023/03/06 03:14:55;;;;;;;7.68;5.70;;;;;;;19.64;40.16;100189.94;5033151;28;20053;-48
2023/03/06 03:17:23;;;;;;;6.60;4.82;;;;;;;19.64;40.16;100189.13;5033999;28;20045;-48
2023/03/06 03:19:51;;;;;;;5.80;4.95;;;;;;;19.64;40.13;100194.47;5034023;28;20053;-51
2023/03/06 03:22:19;;;;;;;7.85;5.45;;;;;;;19.64;40.26;100191.78;5033955;28;20053;-48
2023/03/06 03:24:47;;;;;;;8.27;5.45;;;;;;;19.63;39.76;100195.47;5033839;28;20045;-47
2023/03/06 03:27:14;;;;;;;6.43;5.55;;;;;;;19.64;39.97;100197.16;5033541;28;20053;-46
2023/03/06 03:29:41;;;;;;;9.55;5.45;;;;;;;19.62;39.79;100191.97;5032552;28;20053;-47
2023/03/06 03:32:09;;;;;;;9.68;5.47;;;;;;;19.62;40.20;100183.06;5032026;28;20053;-48
2023/03/06 03:34:37;;;;;;;7.55;5.57;;;;;;;19.62;40.32;100177.69;5033594;28;20061;-48
2023/03/06 03:37:05;;;;;;;7.93;5.43;;;;;;;19.63;39.78;100190.13;5032606;28;20050;-49
2023/03/06 03:39:32;;;;;;;9.00;5.43;;;;;;;19.61;39.60;100186.72;5033820;28;20045;-48
2023/03/06 03:42:02;;;;;;;6.60;4.80;;;;;;;19.61;39.95;100184.03;5033783;28;20046;-47
2023/03/06 03:44:29;;;;;;;9.07;5.38;;;;;;;19.60;39.54;100174.25;5032243;28;20506;-48
2023/03/06 03:46:57;;;;;;;6.07;5.22;;;;;;;19.60;40.16;100169.72;5032469;28;20435;-46
2023/03/06 03:49:24;;;;;;;7.30;5.43;;;;;;;19.61;40.19;100167.91;5032151;28;20064;-47
2023/03/06 03:51:52;;;;;;;6.28;5.10;;;;;;;19.61;40.29;100158.06;5032562;28;20053;-47
2023/03/06 03:54:22;;;;;;;6.35;5.00;;;;;;;19.61;39.99;100163.44;5032471;28;20056;-50
2023/03/06 03:56:52;;;;;;;7.97;5.75;;;;;;;19.61;40.10;100165.25;5032819;28;20049;-48
2023/03/06 03:59:24;;;;;;;6.88;4.68;;;;;;;19.60;39.68;100161.69;5032788;28;20053;-52
2023/03/06 04:02:20;;;;;;;6.75;5.22;;;;;;;19.61;39.35;100173.28;5034662;28;20431;-52
2023/03/06 04:05:03;;;;;;;6.88;4.75;;;;;;;19.60;39.59;100168.91;5033616;28;20411;-47
2023/03/06 04:07:31;;;;;;;5.82;4.50;;;;;;;19.59;39.51;100160.00;5032328;28;20484;-48
2023/03/06 04:09:59;;;;;;;7.35;5.10;;;;;;;19.59;39.56;100151.94;5031888;28;20053;-47
2023/03/06 04:12:28;;;;;;;8.27;5.90;;;;;;;19.59;39.23;100149.25;5033427;28;20045;-51
2023/03/06 04:14:55;;;;;;;6.43;4.85;;;;;;;19.58;39.12;100152.09;5033436;28;20056;-50
2023/03/06 04:17:22;;;;;;;8.73;5.13;;;;;;;19.58;39.10;100150.25;5033453;28;20419;-47
2023/03/06 04:19:51;;;;;;;7.85;5.05;;;;;;;19.58;39.19;100155.63;5032555;28;20053;-52
2023/03/06 04:22:18;;;;;;;6.57;5.10;;;;;;;19.58;39.22;100160.16;5032020;28;20060;-49
2023/03/06 04:24:48;;;;;;;6.93;5.15;;;;;;;19.58;39.22;100166.38;5032233;28;20508;-47
2023/03/06 04:27:17;;;;;;;6.78;4.95;;;;;;;19.58;39.39;100163.69;5032232;28;20057;-48
2023/03/06 04:29:44;;;;;;;6.53;4.95;;;;;;;19.58;39.42;100165.53;5032107;28;20054;-49
2023/03/06 04:32:12;;;;;;;7.50;5.93;;;;;;;19.58;39.39;100168.22;5033027;28;20400;-49
2023/03/06 04:34:39;;;;;;;6.75;5.18;;;;;;;19.57;39.18;100172.75;5031654;28;20049;-49
2023/03/06 04:37:17;;;;;;;6.72;4.97;;;;;;;19.56;39.36;100173.72;5032129;28;20389;-47
2023/03/06 04:39:45;;;;;;;6.60;5.07;;;;;;;19.57;39.20;100169.19;5031741;28;20392;-46
2023/03/06 04:42:12;;;;;;;6.93;4.47;;;;;;;19.56;39.63;100181.75;5033298;28;20050;-51
2023/03/06 04:44:39;;;;;;;6.50;4.90;;;;;;;19.56;39.33;100179.09;5033025;28;20057;-50
2023/03/06 04:47:07;;;;;;;6.45;4.47;;;;;;;19.56;39.62;100180.91;5034182;28;20049;-49
2023/03/06 04:49:34;;;;;;;6.22;4.25;;;;;;;19.56;39.48;100180.91;5036926;28;20042;-49
2023/03/06 04:52:03;;;;;;;7.13;5.30;;;;;;;19.56;39.31;100181.75;5035696;28;20065;-49
2023/03/06 04:54:30;;;;;;;7.03;5.55;;;;;;;19.55;39.33;100182.78;5036648;28;20053;-50
2023/03/06 04:56:58;;;;;;;7.00;4.97;;;;;;;19.56;39.89;100180.91;5036697;28;20049;-48
2023/03/06 04:59:25;;;;;;;5.47;4.40;;;;;;;19.55;40.27;100172.03;5036589;28;20045;-46
2023/03/06 05:01:52;;;;;;;6.18;4.40;;;;;;;19.56;40.31;100170.19;5037047;28;20054;-47
2023/03/06 05:04:20;;;;;;;6.45;4.82;;;;;;;19.56;40.49;100159.44;5036821;28;20045;-47
2023/03/06 05:06:47;;;;;;;7.20;4.60;;;;;;;19.56;40.16;100160.28;5036605;28;20376;-47
2023/03/06 05:09:14;;;;;;;5.95;4.55;;;;;;;19.57;39.95;100169.19;5036474;28;20042;-47
2023/03/06 05:11:41;;;;;;;8.70;4.60;;;;;;;19.56;39.88;100165.66;5036634;28;20049;-47
2023/03/06 05:14:09;;;;;;;6.07;4.68;;;;;;;19.56;40.15;100160.28;5036449;28;20056;-48
2023/03/06 05:16:36;;;;;;;7.78;4.20;;;;;;;19.57;40.26;100147.69;5036473;28;20045;-48
2023/03/06 05:19:03;;;;;;;7.07;4.63;;;;;;;19.56;39.96;100146.88;5036398;28;20057;-47
2023/03/06 05:21:31;;;;;;;5.85;4.45;;;;;;;19.57;39.91;100134.28;5036263;28;20476;-48
2023/03/06 05:23:58;;;;;;;6.20;4.30;;;;;;;19.57;40.05;100136.97;5036081;28;20053;-46
2023/03/06 05:26:25;;;;;;;7.95;4.40;;;;;;;19.57;40.02;100145.03;5036362;28;20064;-47
2023/03/06 05:28:54;;;;;;;5.88;3.90;;;;;;;19.56;39.62;100141.50;5036056;28;20056;-50
2023/03/06 05:31:21;;;;;;;6.25;4.70;;;;;;;19.56;39.69;100154.06;5036277;28;20491;-47
2023/03/06 05:33:48;;;;;;;6.95;5.18;;;;;;;19.56;39.70;100159.44;5036218;28;20057;-47
2023/03/06 05:36:15;;;;;;;5.85;4.43;;;;;;;19.55;40.15;100158.59;5036104;28;20472;-49
2023/03/06 05:38:43;;;;;;;7.78;4.75;;;;;;;19.55;39.94;100157.75;5035991;28;20050;-49
2023/03/06 05:41:12;;;;;;;6.43;4.35;;;;;;;19.55;39.73;100155.91;5036007;28;20361;-51
2023/03/06 05:43:39;;;;;;;7.10;4.20;;;;;;;19.54;39.67;100151.56;5035898;28;20562;-48
2023/03/06 05:46:06;;;;;;;4.35;3.67;;;;;;;19.54;39.74;100148.88;5035891;28;20053;-49
2023/03/06 05:48:36;;;;;;;9.43;4.30;;;;;;;19.54;40.45;100148.88;5035902;28;20049;-49
2023/03/06 05:51:04;;;;;;;5.88;4.03;;;;;;;19.54;40.04;100146.19;5035554;28;20045;-50
2023/03/06 05:53:32;;;;;;;7.32;5.03;;;;;;;19.54;39.73;100150.72;5035736;28;20406;-49
2023/03/06 05:56:02;;;;;;;5.68;4.85;;;;;;;19.53;39.85;100147.19;5035630;28;20045;-48
2023/03/06 05:58:31;;;;;;;6.88;4.45;;;;;;;19.53;39.63;100147.19;5034593;28;20053;-51
2023/03/06 06:00:59;;;;;;;5.50;4.15;;;;;;;19.53;39.96;100144.50;5035790;28;20048;-50
2023/03/06 06:03:26;;;;;;;7.10;4.38;;;;;;;19.52;39.78;100140.94;5035175;28;20037;-49
2023/03/06 06:05:54;;;;;;;7.60;4.75;;;;;;;19.52;39.66;100142.78;5035521;28;20053;-52
2023/03/06 06:08:21;;;;;;;5.63;4.18;;;;;;;19.52;39.93;100148.16;5035357;28;20480;-51
2023/03/06 06:10:48;;;;;;;7.03;5.28;;;;;;;19.51;39.93;100146.47;5035028;28;20042;-47
2023/03/06 06:13:19;;;;;;;6.97;4.28;;;;;;;19.52;39.82;100145.47;5035457;28;20545;-48
2023/03/06 06:15:46;;;;;;;6.78;4.43;;;;;;;19.51;39.96;100155.38;5035292;28;20052;-47
2023/03/06 06:18:14;;;;;;;7.35;4.40;;;;;;;19.51;39.66;100154.53;5035287;28;20053;-48
2023/03/06 06:20:41;;;;;;;7.65;4.30;;;;;;;19.51;39.72;100155.38;5035235;28;20041;-46
2023/03/06 06:23:09;;;;;;;5.78;4.15;;;;;;;19.51;39.86;100160.75;5035216;28;20072;-49
2023/03/06 06:25:37;;;;;;;5.30;4.38;;;;;;;19.51;39.98;100158.06;5035033;28;20396;-48
2023/03/06 06:28:04;;;;;;;6.35;4.43;;;;;;;19.51;39.98;100159.91;5034992;28;20091;-48
2023/03/06 06:30:32;;;;;;;6.50;4.70;;;;;;;19.51;39.79;100162.59;5034956;28;20042;-48
2023/03/06 06:33:00;;;;;;;6.70;4.10;;;;;;;19.50;39.67;100169.78;5034974;28;20049;-47
2023/03/06 06:35:27;;;;;;;5.95;4.22;;;;;;;19.50;39.95;100167.09;5035098;28;20050;-48
2023/03/06 06:37:54;;;;;;;7.70;4.70;;;;;;;19.49;39.79;100168.13;5034867;28;20407;-48
2023/03/06 06:40:23;;;;;;;7.90;4.82;;;;;;;19.50;39.95;100166.28;5034711;28;20048;-48
2023/03/06 06:42:51;;;;;;;5.07;3.75;;;;;;;19.49;40.16;100168.13;5034808;28;20057;-51
2023/03/06 06:45:18;;;;;;;5.88;4.57;;;;;;;19.49;40.15;100159.22;5034663;28;20041;-49
2023/03/06 06:47:48;;;;;;;7.38;4.03;;;;;;;19.49;39.87;100164.59;5034688;28;20049;-48
2023/03/06 06:50:15;;;;;;;8.25;4.85;;;;;;;19.49;40.23;100161.91;5034540;28;20049;-49
2023/03/06 06:52:43;;;;;;;6.90;4.47;;;;;;;19.49;40.01;100161.91;5034562;28;20507;-47
2023/03/06 06:55:11;;;;;;;6.38;4.35;;;;;;;19.49;40.04;100159.22;5034510;28;20045;-49
2023/03/06 06:57:39;;;;;;;6.65;4.03;;;;;;;19.49;40.08;100165.44;5034486;28;20042;-47
2023/03/06 07:00:08;;;;;;;6.47;4.40;;;;;;;19.49;39.96;100160.06;5034467;28;20052;-50
2023/03/06 07:02:35;;;;;;;5.40;4.20;;;;;;;19.48;39.80;100155.66;5034368;28;20049;-48
2023/03/06 07:05:03;;;;;;;6.30;3.95;;;;;;;19.49;39.89;100160.06;5033444;28;20041;-48
2023/03/06 07:07:36;;;;;;;6.25;4.40;;;;;;;19.49;39.71;100164.59;5034297;28;20045;-50
2023/03/06 07:10:13;;;;;;;5.68;4.45;;;;;;;19.48;39.79;100163.72;5033971;28;20045;-51
2023/03/06 07:12:41;;;;;;;6.60;4.40;;;;;;;19.48;39.81;100152.97;5034200;28;20460;-48
2023/03/06 07:15:12;;;;;;;7.30;4.60;;;;;;;19.49;39.88;100159.22;5033772;28;20052;-48
2023/03/06 07:17:39;;;;;;;5.93;4.07;;;;;;;19.49;39.85;100154.69;5034063;28;20057;-46
2023/03/06 07:20:07;;;;;;;7.55;4.40;;;;;;;19.50;39.87;100152.84;5033982;28;20049;-50
2023/03/06 07:22:36;;;;;;;6.78;4.40;;;;;;;19.49;39.69;100152.00;5033934;28;20045;-49
2023/03/06 07:25:17;;;;;;;5.05;3.60;;;;;;;19.49;39.58;100143.94;5034173;28;20053;-47
2023/03/06 07:27:44;;;;;;;6.22;4.05;;;;;;;19.49;39.64;100148.47;5033892;28;20045;-48
2023/03/06 07:30:20;;;;;;;6.03;4.18;;;;;;;19.48;39.98;100138.72;5033927;28;20483;-47
2023/03/06 07:32:50;;;;;;;7.10;4.60;;;;;;;19.50;39.91;100150.16;5033914;28;20050;-50
2023/03/06 07:35:18;;;;;;;6.20;4.50;;;;;;;19.49;39.90;100148.47;5033936;28;20045;-48
2023/03/06 07:37:47;;;;;;;7.88;4.30;;;;;;;19.50;39.98;100150.16;5033639;28;20392;-46
2023/03/06 07:40:14;;;;;;;6.55;4.43;;;;;;;19.49;40.18;100146.63;5034183;28;20049;-47
2023/03/06 07:42:41;;;;;;;6.25;4.05;;;;;;;19.51;40.13;100154.53;5033784;28;20113;-47
2023/03/06 07:45:12;;;;;;;6.57;3.95;;;;;;;19.50;40.22;100150.16;5032827;28;20052;-47
2023/03/06 07:47:40;;;;;;;6.05;4.10;;;;;;;19.50;40.14;100152.84;5033621;28;20053;-50
2023/03/06 07:50:07;;;;;;;7.10;4.28;;;;;;;19.51;40.09;100154.53;5033583;28;20045;-47
2023/03/06 07:52:35;;;;;;;5.20;3.60;;;;;;;19.50;40.20;100158.22;5033493;28;20052;-49
2023/03/06 07:55:03;;;;;;;6.97;4.38;;;;;;;19.51;40.22;100159.91;5033811;28;20046;-49
2023/03/06 07:57:30;;;;;;;5.35;4.03;;;;;;;19.49;40.21;100153.84;5033608;28;20052;-47
2023/03/06 07:59:57;;;;;;;5.90;4.20;;;;;;;19.51;40.35;100162.59;5033611;28;20052;-47
2023/03/06 08:02:25;;;;;;;5.13;4.10;;;;;;;19.51;41.04;100162.59;5043245;28;20398;-50
2023/03/06 08:04:53;;;;;;;5.80;3.80;;;;;;;19.52;40.93;100161.56;5051780;28;20040;-47
2023/03/06 08:07:21;;;;;;;7.97;3.88;;;;;;;19.52;40.34;100167.78;5052987;28;20052;-48
2023/03/06 08:09:48;;;;;;;5.82;3.60;;;;;;;19.54;40.59;100167.66;5053095;28;20116;-52
2023/03/06 08:12:16;;;;;;;7.70;4.03;;;;;;;19.54;40.67;100162.28;5053205;28;20044;-52
2023/03/06 08:14:43;;;;;;;11.00;4.43;;;;;;;19.52;40.47;100159.75;5053104;28;20041;-48
2023/03/06 08:17:10;;;;;;;7.15;4.00;;;;;;;19.53;40.92;100160.59;5053142;28;20045;-49
2023/03/06 08:19:37;;;;;;;8.35;4.13;;;;;;;19.55;41.01;100163.13;5053261;28;20045;-54
2023/03/06 08:22:05;;;;;;;8.88;4.97;;;;;;;19.57;40.68;100166.50;5054279;28;20467;-53
2023/03/06 08:24:33;;;;;;;11.10;4.57;;;;;;;19.57;40.63;100159.31;5057404;28;20049;-48
2023/03/06 08:27:01;;;;;;;9.10;4.10;;;;;;;19.60;41.69;100160.84;5057209;28;20057;-51
2023/03/06 08:29:28;;;;;;;7.28;3.80;;;;;;;19.62;40.94;100172.31;5057253;28;20048;-51
2023/03/06 08:31:58;;;;;;;9.80;4.32;;;;;;;19.64;42.22;100165.78;5057086;28;20064;-51
2023/03/06 08:34:25;;;;;;;7.95;3.85;;;;;;;19.66;41.93;100160.28;5057218;28;20052;-48
2023/03/06 08:36:52;;;;;;;6.03;4.10;;;;;;;19.68;41.72;100159.13;5056141;28;20488;-48
2023/03/06 08:39:20;;;;;;;11.18;4.70;;;;;;;19.72;41.35;100165.03;5056816;28;20076;-49
2023/03/06 08:41:47;;;;;;;8.68;4.60;;;;;;;19.73;41.19;100166.75;5068370;28;20045;-51
2023/03/06 08:44:14;;;;;;;10.35;5.03;;;;;;;19.74;41.21;100157.69;5076840;28;20044;-49
2023/03/06 08:46:42;;;;;;;7.38;5.55;;;;;;;19.75;41.05;100164.75;5076295;28;20051;-54
2023/03/06 08:49:11;;;;;;;8.98;4.30;;;;;;;19.76;41.12;100164.59;5066375;28;20406;-52
2023/03/06 08:51:38;;;;;;;7.75;4.40;;;;;;;19.78;41.67;100160.94;5066115;28;20041;-46
2023/03/06 08:54:06;;;;;;;7.85;4.95;;;;;;;19.78;41.13;100160.94;5061219;28;20045;-47
2023/03/06 08:56:33;;;;;;;6.68;5.20;;;;;;;19.77;40.34;100152.03;5056455;28;20044;-51
2023/03/06 08:59:03;;;;;;;12.45;5.47;;;;;;;19.76;39.90;100155.69;5056432;28;20052;-48
2023/03/06 09:01:33;;;;;;;7.90;5.22;;;;;;;19.76;39.45;100161.06;5056193;28;20041;-49
2023/03/06 09:04:04;;;;;;;8.27;5.68;;;;;;;19.74;39.29;100153.16;5056124;28;20495;-48
2023/03/06 09:06:34;;;;;;;9.57;4.75;;;;;;;19.73;39.06;100153.31;5056218;28;20040;-52
2023/03/06 09:09:03;;;;;;;7.75;4.70;;;;;;;19.73;38.62;100158.69;5056101;28;20055;-49
2023/03/06 09:11:30;;;;;;;5.72;4.55;;;;;;;19.74;38.85;100160.38;5056259;28;20056;-53
2023/03/06 09:13:58;;;;;;;10.02;4.60;;;;;;;19.73;38.25;100158.69;5056054;28;20048;-53
2023/03/06 09:16:25;;;;;;;8.73;5.13;;;;;;;19.72;37.97;100162.34;5055905;28;20041;-52
2023/03/06 09:18:53;;;;;;;11.30;4.78;;;;;;;19.70;38.36;100154.47;5055967;28;20475;-47
2023/03/06 09:21:21;;;;;;;8.15;5.28;;;;;;;19.69;38.07;100158.16;5055890;28;20041;-47
2023/03/06 09:23:49;;;;;;;8.20;4.15;;;;;;;19.69;38.49;100160.84;5055890;28;20057;-49
2023/03/06 09:26:17;;;;;;;13.10;4.55;;;;;;;19.70;38.30;100153.63;5055834;28;20053;-49
2023/03/06 09:28:45;;;;;;;8.15;4.95;;;;;;;19.69;38.46;100155.47;5055878;28;20044;-51
2023/03/06 09:31:16;;;;;;;7.53;4.13;;;;;;;19.70;38.32;100157.16;5055748;28;20045;-49
2023/03/06 09:33:44;;;;;;;7.40;3.83;;;;;;;19.70;39.08;100153.63;5055840;28;20386;-51
2023/03/06 09:36:17;;;;;;;6.88;4.13;;;;;;;19.71;39.20;100152.63;5055752;28;20052;-50
2023/03/06 09:38:46;;;;;;;;;;;;;;;19.71;39.80;100144.56;5056176;28;20049;-54
2023/03/06 09:41:34;;;;;;;9.55;4.05;;;;;;;19.73;39.32;100151.47;5054935;28;19921;-55
2023/03/06 09:44:05;;;;;;;4.45;3.67;;;;;;;19.74;39.65;100153.16;5056000;28;20048;-54
2023/03/06 09:46:50;;;;;;;6.05;4.15;;;;;;;19.75;39.28;100149.47;5055663;28;20486;-54
2023/03/06 09:49:21;;;;;;;6.32;3.67;;;;;;;19.76;39.41;100153.84;5055369;28;20079;-53
2023/03/06 09:51:57;;;;;;;9.25;3.83;;;;;;;19.77;39.45;100143.97;5055296;28;20399;-48
2023/03/06 09:54:32;;;;;;;6.25;4.70;;;;;;;19.72;37.09;100148.94;5055492;28;20414;-51
2023/03/06 09:56:59;;;;;;;8.75;4.55;;;;;;;19.67;37.60;100145.84;5055262;28;20522;-53
2023/03/06 09:59:27;;;;;;;6.28;4.25;;;;;;;19.64;38.39;100144.31;5055024;28;20049;-47
2023/03/06 10:02:13;;;;;;;7.20;4.35;;;;;;;19.64;38.71;100146.16;5066570;28;20040;-47
2023/03/06 10:04:45;;;;;;;7.38;3.75;;;;;;;19.66;39.10;100141.50;5075147;28;20040;-50
2023/03/06 10:07:27;;;;;;;5.70;3.53;;;;;;;19.67;39.23;100137.78;5074752;28;20045;-50
2023/03/06 10:10:00;;;;;;;5.07;3.72;;;;;;;19.68;39.53;100143.00;5075328;28;20048;-52
2023/03/06 10:12:55;;;;;;;7.07;3.88;;;;;;;19.70;39.41;100148.25;5075245;28;20044;-49
2023/03/06 10:15:32;;;;;;;8.52;3.90;;;;;;;19.72;39.17;100155.13;5075074;28;20387;-48
2023/03/06 10:18:02;;;;;;;6.35;4.13;;;;;;;19.74;39.36;100157.69;5074928;28;20048;-49
2023/03/06 10:20:57;;;;;;;4.68;3.58;;;;;;;19.74;39.34;100146.94;5074809;28;20052;-52
2023/03/06 10:23:51;;;;;;;8.15;4.03;;;;;;;19.75;39.20;100144.09;5074413;28;20548;-52
2023/03/06 10:26:24;;;;;;;6.80;3.90;;;;;;;19.76;39.56;100140.41;5074486;28;20048;-49
2023/03/06 10:29:09;;;;;;;6.90;3.75;;;;;;;19.76;39.40;100137.72;5074610;28;20053;-50
2023/03/06 10:31:47;;;;;;;5.95;3.58;;;;;;;19.76;39.38;100136.88;5074426;28;20048;-47
2023/03/06 10:34:27;;;;;;;7.00;3.90;;;;;;;19.79;39.44;100133.06;5074665;28;20040;-52
2023/03/06 10:37:01;;;;;;;5.20;3.72;;;;;;;19.79;40.10;100128.53;5074257;28;20051;-53
2023/03/06 10:39:28;;;;;;;6.80;3.50;;;;;;;19.80;39.86;100121.31;5074431;28;20056;-49
2023/03/06 10:41:56;;;;;;;6.38;3.97;;;;;;;19.81;40.51;100120.31;5072993;28;20062;-50
2023/03/06 10:44:23;;;;;;;8.60;3.58;;;;;;;19.81;39.96;100109.56;5073835;28;20060;-50
2023/03/06 10:46:52;;;;;;;5.82;3.55;;;;;;;19.83;39.84;100110.28;5072522;28;20051;-51
2023/03/06 10:49:22;;;;;;;4.40;3.35;;;;;;;19.82;39.80;100112.13;5073972;28;20052;-49
2023/03/06 10:51:59;;;;;;;5.63;3.63;;;;;;;19.83;39.67;100103.06;5073927;28;20067;-50
2023/03/06 10:54:28;;;;;;;7.28;3.25;;;;;;;19.84;39.79;100103.91;5073361;28;20060;-52
2023/03/06 10:56:55;;;;;;;7.70;3.80;;;;;;;19.85;39.55;100108.25;5073820;28;20041;-49
2023/03/06 10:59:27;;;;;;;5.45;3.72;;;;;;;19.85;39.59;100100.22;5073990;28;20040;-48
2023/03/06 11:01:57;;;;;;;6.82;3.83;;;;;;;19.84;39.62;100095.84;5073546;28;20052;-48
2023/03/06 11:04:30;;;;;;;4.80;3.25;;;;;;;19.84;39.49;100099.38;5073619;28;20048;-50
2023/03/06 11:07:13;;;;;;;6.60;3.17;;;;;;;19.85;39.54;100089.47;5074053;28;20045;-48
2023/03/06 11:09:42;;;;;;;3.97;2.90;;;;;;;19.85;39.46;100094.84;5073621;28;20049;-50
2023/03/06 11:12:25;;;;;;;5.55;3.00;;;;;;;19.84;39.45;100088.63;5073502;28;20390;-49
2023/03/06 11:15:17;;;;;;;7.90;3.60;;;;;;;19.85;39.38;100086.78;5073802;28;20071;-51
2023/03/06 11:17:51;;;;;;;6.82;3.30;;;;;;;19.85;39.80;100087.66;5073603;28;20040;-51
2023/03/06 11:20:19;;;;;;;6.82;2.97;;;;;;;19.84;39.70;100088.63;5073558;28;20049;-47
2023/03/06 11:23:03;;;;;;;4.95;2.85;;;;;;;19.87;40.27;100087.47;5073321;28;20051;-49
2023/03/06 11:25:55;;;;;;;4.57;2.45;;;;;;;19.88;40.11;100083.78;5073862;28;20044;-50
2023/03/06 11:28:24;;;;;;;5.38;2.97;;;;;;;19.88;39.98;100081.09;5073129;28;20060;-49
2023/03/06 11:31:07;;;;;;;5.88;2.90;;;;;;;19.88;39.92;100081.94;5073623;28;20052;-49
2023/03/06 11:33:45;;;;;;;4.65;2.90;;;;;;;19.87;39.96;100082.94;5073778;28;20045;-48
2023/03/06 11:36:29;;;;;;;5.40;3.30;;;;;;;19.88;40.15;100079.25;5072216;28;20045;-49